Time;durP1;ratioP1;P1;durP2;ratioP2;P2;SDS_P1;SDS_P2;PMS_P1;PMS_P2;Temp;Humidity;BMP_temperature;BMP_pressure;BME280_temperature;BME280_humidity;BME280_pressure;Samples;Min_cycle;Max_cycle;Signal;HPM_P1;HPM_P2
2022/08/21 00:01:05;;;;;;;7.85;6.80;;;22.00;68.50;;;;;;5012777;28;20021;-72
2022/08/21 00:03:32;;;;;;;7.47;6.68;;;22.00;68.40;;;;;;5012744;28;20104;-72
2022/08/21 00:05:57;;;;;;;9.85;8.05;;;22.10;68.40;;;;;;5011427;28;20018;-73
2022/08/21 00:08:23;;;;;;;8.63;7.55;;;22.00;68.10;;;;;;5012705;28;20029;-72
2022/08/21 00:10:50;;;;;;;8.95;6.68;;;22.00;68.00;;;;;;5028554;28;20049;-72
2022/08/21 00:13:17;;;;;;;6.93;6.22;;;22.00;68.00;;;;;;5032302;28;20033;-72
2022/08/21 00:15:43;;;;;;;6.70;6.00;;;22.10;68.10;;;;;;5032558;28;20021;-72
2022/08/21 00:18:10;;;;;;;7.80;6.10;;;22.10;68.10;;;;;;5034996;28;20017;-72
2022/08/21 00:20:37;;;;;;;7.28;6.00;;;22.10;68.10;;;;;;5039517;28;20049;-72
2022/08/21 00:23:03;;;;;;;9.73;6.65;;;22.10;67.80;;;;;;5056311;28;20025;-72
2022/08/21 00:25:29;;;;;;;6.75;6.13;;;22.10;67.90;;;;;;5056251;28;20555;-72
2022/08/21 00:27:56;;;;;;;7.85;5.85;;;22.10;67.90;;;;;;5056169;28;20112;-72
2022/08/21 00:30:23;;;;;;;7.32;6.53;;;22.10;67.90;;;;;;5056059;28;20082;-72
2022/08/21 00:32:50;;;;;;;6.50;5.90;;;22.10;67.90;;;;;;5037428;28;20032;-72
2022/08/21 00:35:19;;;;;;;6.95;6.25;;;22.10;67.90;;;;;;5054746;28;20056;-72
2022/08/21 00:37:45;;;;;;;6.28;5.43;;;22.10;67.90;;;;;;5055676;28;20445;-72
2022/08/21 00:40:16;;;;;;;7.18;5.22;;;22.10;67.70;;;;;;5028023;28;20109;-72
2022/08/21 00:42:43;;;;;;;6.07;5.32;;;22.10;67.70;;;;;;5041610;28;20040;-72
2022/08/21 00:45:10;;;;;;;7.05;6.05;;;22.10;67.70;;;;;;5055649;28;20075;-72
2022/08/21 00:47:36;;;;;;;7.38;5.72;;;22.10;67.50;;;;;;5037687;28;20429;-72
2022/08/21 00:50:05;;;;;;;6.35;5.57;;;22.10;67.50;;;;;;5055594;28;20021;-72
2022/08/21 00:52:33;;;;;;;5.97;5.03;;;22.10;67.50;;;;;;5054162;28;20056;-72
2022/08/21 00:55:01;;;;;;;6.57;5.25;;;22.10;67.50;;;;;;5047952;28;20025;-72
2022/08/21 00:57:36;;;;;;;6.50;4.63;;;22.00;67.50;;;;;;5035482;28;20075;-72
2022/08/21 01:00:07;;;;;;;6.97;5.07;;;22.00;67.40;;;;;;5035517;28;20025;-72
2022/08/21 01:02:33;;;;;;;5.53;4.85;;;22.00;67.40;;;;;;5035324;28;20033;-72
2022/08/21 01:04:59;;;;;;;7.45;5.00;;;22.00;67.30;;;;;;5036184;28;20029;-72
2022/08/21 01:07:25;;;;;;;7.28;5.65;;;22.00;67.30;;;;;;5035227;28;20033;-72
2022/08/21 01:09:51;;;;;;;8.35;5.18;;;21.90;67.10;;;;;;5035141;28;20029;-72
2022/08/21 01:12:18;;;;;;;5.57;4.95;;;21.90;67.10;;;;;;5035031;28;20092;-72
2022/08/21 01:14:44;;;;;;;5.60;4.78;;;21.90;67.30;;;;;;5034990;28;20479;-72
2022/08/21 01:17:14;;;;;;;6.05;4.53;;;21.90;67.20;;;;;;5033616;28;20021;-72
2022/08/21 01:19:40;;;;;;;5.32;4.20;;;21.90;67.40;;;;;;5033259;28;20079;-72
2022/08/21 01:22:06;;;;;;;8.93;4.95;;;21.80;67.10;;;;;;5033427;28;20049;-72
2022/08/21 01:24:32;;;;;;;5.13;4.63;;;21.80;67.10;;;;;;5033565;28;20024;-73
2022/08/21 01:26:59;;;;;;;5.43;4.93;;;21.80;67.10;;;;;;5015350;28;20037;-72
2022/08/21 01:30:07;;;;;;;6.57;4.80;;;21.80;67.10;;;;;;5032604;28;20024;-72
2022/08/21 01:32:33;;;;;;;7.65;4.43;;;21.70;67.10;;;;;;4991618;28;20030;-72
2022/08/21 01:34:59;;;;;;;5.57;4.13;;;21.80;67.30;;;;;;4994996;28;20081;-72
2022/08/21 01:37:25;;;;;;;17.92;6.55;;;21.80;67.40;;;;;;5001229;28;20030;-72
2022/08/21 01:39:51;;;;;;;7.00;5.53;;;21.70;67.10;;;;;;4985944;28;20050;-72
2022/08/21 01:42:17;;;;;;;8.73;4.60;;;21.70;67.20;;;;;;5000375;28;20034;-72
2022/08/21 01:44:44;;;;;;;6.60;4.88;;;21.70;67.40;;;;;;4985270;28;20033;-72
2022/08/21 01:47:12;;;;;;;5.38;4.88;;;21.70;67.30;;;;;;5001950;28;20034;-72
2022/08/21 01:49:39;;;;;;;6.25;5.40;;;21.70;67.40;;;;;;4996868;28;20036;-72
2022/08/21 01:52:05;;;;;;;6.43;5.10;;;21.70;67.40;;;;;;5001232;28;20038;-72
2022/08/21 01:54:32;;;;;;;6.05;5.32;;;21.70;67.30;;;;;;4998882;28;20022;-72
2022/08/21 01:56:59;;;;;;;5.22;4.72;;;21.70;67.40;;;;;;5002040;28;20033;-72
2022/08/21 01:59:25;;;;;;;5.97;4.63;;;21.60;67.30;;;;;;5001285;28;20081;-72
2022/08/21 02:01:53;;;;;;;11.82;7.18;;;21.60;67.40;;;;;;5000423;28;20050;-73
2022/08/21 02:04:20;;;;;;;6.43;5.72;;;21.60;67.60;;;;;;4999676;28;20515;-72
2022/08/21 02:06:45;;;;;;;6.32;5.50;;;21.60;67.60;;;;;;5001276;28;20041;-72
2022/08/21 02:09:12;;;;;;;7.22;5.78;;;21.60;67.60;;;;;;5028220;28;20033;-73
2022/08/21 02:11:40;;;;;;;7.57;5.95;;;21.60;67.50;;;;;;5014835;28;20033;-72
2022/08/21 02:14:14;;;;;;;6.93;6.03;;;21.60;67.30;;;;;;5032862;28;20079;-72
2022/08/21 02:16:41;;;;;;;;;;;21.60;67.40;;;;;;5030599;28;20024;-72
2022/08/21 02:19:07;;;;;;;6.20;4.25;;;21.60;67.50;;;;;;5032865;28;19908;-72
2022/08/21 02:21:33;;;;;;;5.82;4.85;;;21.60;67.30;;;;;;5032602;28;20117;-72
2022/08/21 02:23:59;;;;;;;10.30;8.02;;;21.60;67.30;;;;;;5032548;28;20108;-72
2022/08/21 02:26:25;;;;;;;10.68;7.03;;;21.60;67.40;;;;;;5032673;28;20024;-72
2022/08/21 02:28:51;;;;;;;6.55;5.95;;;21.60;67.40;;;;;;5032632;28;20013;-72
2022/08/21 02:31:17;;;;;;;7.78;6.65;;;21.60;67.50;;;;;;5032356;28;20035;-72
2022/08/21 02:33:43;;;;;;;10.05;6.25;;;21.60;67.50;;;;;;5034372;28;20068;-72
2022/08/21 02:36:10;;;;;;;10.85;5.60;;;21.60;67.60;;;;;;5014501;28;20037;-73
2022/08/21 02:38:39;;;;;;;8.75;6.03;;;21.60;67.50;;;;;;5032328;28;20028;-72
2022/08/21 02:41:08;;;;;;;7.35;6.22;;;21.60;67.70;;;;;;5031182;28;20364;-72
2022/08/21 02:43:35;;;;;;;9.00;6.72;;;21.50;67.70;;;;;;5032256;28;20021;-72
2022/08/21 02:46:03;;;;;;;10.25;9.18;;;21.60;67.80;;;;;;5029470;28;20100;-72
2022/08/21 02:48:31;;;;;;;9.48;7.90;;;21.50;67.80;;;;;;5031926;28;20022;-72
2022/08/21 02:51:00;;;;;;;13.23;10.07;;;21.50;67.90;;;;;;5014264;28;20458;-71
2022/08/21 02:53:26;;;;;;;15.93;12.52;;;21.50;67.90;;;;;;5031872;28;20025;-71
2022/08/21 02:55:53;;;;;;;11.38;9.27;;;21.50;68.00;;;;;;5031915;28;20067;-72
2022/08/21 02:58:24;;;;;;;12.30;9.73;;;21.50;68.10;;;;;;5031829;28;20466;-71
2022/08/21 03:00:51;;;;;;;7.07;6.38;;;21.50;68.20;;;;;;5031867;28;20013;-71
2022/08/21 03:03:16;;;;;;;7.82;6.57;;;21.40;68.10;;;;;;5034180;28;20075;-71
2022/08/21 03:05:44;;;;;;;6.93;5.88;;;21.50;68.20;;;;;;5031805;28;20360;-71
2022/08/21 03:08:12;;;;;;;13.13;6.32;;;21.40;68.40;;;;;;5031414;28;20363;-72
2022/08/21 03:10:40;;;;;;;6.55;5.90;;;21.40;68.70;;;;;;5031642;28;20029;-72
2022/08/21 03:13:07;;;;;;;7.28;5.85;;;21.40;68.70;;;;;;5032056;28;20083;-72
2022/08/21 03:15:33;;;;;;;6.38;5.78;;;21.40;68.80;;;;;;5031748;28;20024;-70
2022/08/21 03:17:58;;;;;;;6.38;5.75;;;21.40;68.90;;;;;;5031568;28;20021;-73
2022/08/21 03:20:27;;;;;;;8.43;6.50;;;21.40;68.90;;;;;;5031927;28;20021;-73
2022/08/21 03:22:54;;;;;;;6.90;6.20;;;21.30;68.90;;;;;;5031638;28;20025;-72
2022/08/21 03:25:22;;;;;;;7.15;6.15;;;21.30;68.90;;;;;;5031518;28;20025;-71
2022/08/21 03:27:51;;;;;;;6.70;6.00;;;21.40;69.00;;;;;;5014239;28;20099;-73
2022/08/21 03:30:19;;;;;;;6.88;6.15;;;21.40;69.00;;;;;;5032817;28;20040;-73
2022/08/21 03:32:46;;;;;;;7.70;6.28;;;21.30;69.00;;;;;;5031342;28;20030;-74
2022/08/21 03:35:13;;;;;;;8.45;7.10;;;21.30;69.00;;;;;;5031379;28;20026;-73
2022/08/21 03:37:39;;;;;;;8.15;7.35;;;21.30;69.10;;;;;;5030486;28;20029;-73
2022/08/21 03:40:07;;;;;;;8.93;7.07;;;21.30;69.20;;;;;;5031316;28;20025;-74
2022/08/21 03:42:33;;;;;;;13.27;10.65;;;21.30;69.20;;;;;;5013738;28;20112;-73
2022/08/21 03:44:59;;;;;;;9.40;7.28;;;21.30;69.20;;;;;;5014153;28;20456;-73
2022/08/21 03:47:25;;;;;;;8.68;7.15;;;21.30;69.10;;;;;;5031221;28;20036;-73
2022/08/21 03:49:51;;;;;;;7.43;6.45;;;21.30;69.10;;;;;;5013200;28;20032;-73
2022/08/21 03:52:17;;;;;;;7.65;6.40;;;21.30;69.10;;;;;;5033941;28;20627;-73
2022/08/21 03:54:44;;;;;;;10.50;7.43;;;21.30;69.20;;;;;;5033357;28;20024;-74
2022/08/21 03:57:10;;;;;;;7.65;6.85;;;21.30;69.40;;;;;;5035616;28;20021;-73
2022/08/21 03:59:37;;;;;;;9.43;7.40;;;21.30;69.40;;;;;;5035425;28;20025;-73
2022/08/21 04:02:05;;;;;;;13.43;7.68;;;21.30;69.40;;;;;;5032517;28;20475;-73
2022/08/21 04:04:33;;;;;;;7.57;6.68;;;21.30;69.40;;;;;;5036614;28;20364;-73
2022/08/21 04:06:59;;;;;;;8.63;7.72;;;21.30;69.50;;;;;;5017373;28;20028;-73
2022/08/21 04:09:25;;;;;;;9.43;7.88;;;21.30;69.50;;;;;;5035460;28;20115;-73
2022/08/21 04:11:51;;;;;;;11.85;10.05;;;21.30;69.50;;;;;;5035655;28;20025;-73
2022/08/21 04:14:17;;;;;;;9.23;8.23;;;21.30;69.60;;;;;;5034099;28;20048;-73
2022/08/21 04:16:44;;;;;;;8.70;7.75;;;21.30;69.60;;;;;;5039193;28;20025;-71
2022/08/21 04:19:12;;;;;;;14.38;11.32;;;21.30;69.70;;;;;;5035283;28;20025;-71
2022/08/21 04:21:40;;;;;;;14.18;11.73;;;21.30;69.70;;;;;;5040385;28;20410;-71
2022/08/21 04:24:07;;;;;;;13.43;9.48;;;21.30;69.80;;;;;;5035338;28;20025;-71
2022/08/21 04:26:37;;;;;;;12.60;10.68;;;21.30;69.90;;;;;;5035306;28;20026;-71
2022/08/21 04:29:06;;;;;;;10.02;8.95;;;21.30;69.90;;;;;;5035160;28;20030;-71
2022/08/21 04:31:33;;;;;;;10.05;8.27;;;21.30;70.00;;;;;;5034242;28;20056;-71
2022/08/21 04:33:59;;;;;;;10.93;9.07;;;21.30;70.00;;;;;;5042103;28;20356;-71
2022/08/21 04:36:26;;;;;;;10.60;8.65;;;21.30;70.20;;;;;;5036921;28;20029;-71
2022/08/21 04:38:51;;;;;;;11.52;8.38;;;21.30;70.20;;;;;;5055070;28;20028;-71
2022/08/21 04:41:18;;;;;;;12.75;10.85;;;21.30;70.30;;;;;;5055028;28;20021;-71
2022/08/21 04:43:44;;;;;;;12.10;9.93;;;21.30;70.30;;;;;;5054890;28;20025;-71
2022/08/21 04:46:10;;;;;;;11.35;9.75;;;21.30;70.30;;;;;;5035360;28;20021;-71
2022/08/21 04:48:36;;;;;;;10.30;9.15;;;21.30;70.40;;;;;;5052782;28;20432;-71
2022/08/21 04:51:23;;;;;;;9.43;8.43;;;21.30;70.40;;;;;;5035789;28;20026;-71
2022/08/21 04:53:53;;;;;;;11.65;9.45;;;21.30;70.50;;;;;;5035792;28;20032;-71
2022/08/21 04:56:23;;;;;;;9.75;8.18;;;21.30;70.50;;;;;;5035753;28;20025;-71
2022/08/21 04:58:49;;;;;;;11.07;8.48;;;21.30;70.50;;;;;;5034385;28;20360;-71
2022/08/21 05:01:21;;;;;;;9.05;8.13;;;21.40;70.60;;;;;;5034374;28;20017;-71
2022/08/21 05:03:51;;;;;;;9.27;7.82;;;21.40;70.60;;;;;;5039236;28;20100;-71
2022/08/21 05:06:17;;;;;;;8.27;7.35;;;21.40;70.50;;;;;;5055434;28;20025;-71
2022/08/21 05:08:46;;;;;;;12.43;8.43;;;21.40;70.40;;;;;;5055415;28;20021;-71
2022/08/21 05:11:13;;;;;;;9.32;7.50;;;21.50;70.60;;;;;;5055284;28;20029;-71
2022/08/21 05:13:41;;;;;;;9.18;6.93;;;21.50;70.50;;;;;;5037044;28;20029;-71
2022/08/21 05:16:07;;;;;;;8.07;6.93;;;21.60;70.60;;;;;;5055247;28;20068;-71
2022/08/21 05:18:33;;;;;;;8.18;7.38;;;21.60;70.50;;;;;;5050089;28;20022;-71
2022/08/21 05:20:58;;;;;;;10.43;8.93;;;21.60;70.40;;;;;;5033796;28;20431;-71
2022/08/21 05:23:25;;;;;;;11.77;9.75;;;21.70;70.30;;;;;;5035317;28;20028;-72
2022/08/21 05:25:53;;;;;;;10.07;8.30;;;21.70;70.10;;;;;;5035174;28;20021;-71
2022/08/21 05:28:19;;;;;;;8.15;7.35;;;21.70;70.10;;;;;;5035809;28;20029;-71
2022/08/21 05:30:45;;;;;;;9.20;8.02;;;21.70;70.80;;;;;;5035813;28;20116;-70
2022/08/21 05:33:11;;;;;;;8.10;7.30;;;21.80;69.80;;;;;;5038292;28;20033;-70
2022/08/21 05:35:38;;;;;;;9.98;8.32;;;21.80;69.80;;;;;;5017040;28;20048;-71
2022/08/21 05:38:04;;;;;;;9.57;7.93;;;21.80;69.80;;;;;;5034914;28;20030;-70
2022/08/21 05:40:31;;;;;;;9.27;8.13;;;21.80;69.90;;;;;;5034820;28;20387;-70
2022/08/21 05:42:58;;;;;;;11.38;9.38;;;21.80;69.90;;;;;;5035614;28;20032;-71
2022/08/21 05:45:28;;;;;;;8.65;7.75;;;21.80;69.90;;;;;;5046683;28;20031;-71
2022/08/21 05:47:54;;;;;;;11.57;8.02;;;21.90;69.90;;;;;;5034687;28;20449;-71
2022/08/21 05:50:20;;;;;;;7.75;6.88;;;21.90;70.00;;;;;;5033416;28;20117;-71
2022/08/21 05:52:46;;;;;;;10.23;8.30;;;21.90;70.20;;;;;;5034628;28;20037;-71
2022/08/21 05:55:12;;;;;;;13.68;7.60;;;21.90;70.10;;;;;;5034606;28;20025;-71
2022/08/21 05:57:40;;;;;;;10.43;7.32;;;22.00;70.20;;;;;;5034590;28;20045;-71
2022/08/21 06:00:12;;;;;;;7.47;6.70;;;22.00;70.40;;;;;;5034506;28;20109;-71
2022/08/21 06:02:38;;;;;;;8.02;7.22;;;22.00;70.50;;;;;;5052004;28;20025;-70
2022/08/21 06:05:04;;;;;;;8.88;7.93;;;22.10;70.30;;;;;;5031287;28;20037;-70
2022/08/21 06:07:30;;;;;;;8.88;7.85;;;22.10;70.20;;;;;;5054542;28;20029;-71
2022/08/21 06:09:55;;;;;;;8.77;7.47;;;22.10;70.10;;;;;;5054401;28;20055;-70
2022/08/21 06:12:21;;;;;;;9.90;6.68;;;22.20;70.50;;;;;;5041705;28;20033;-71
2022/08/21 06:14:47;;;;;;;8.00;7.28;;;22.20;70.10;;;;;;5034161;28;20053;-71
2022/08/21 06:17:14;;;;;;;9.35;7.32;;;22.30;70.10;;;;;;5034305;28;20466;-71
2022/08/21 06:19:40;;;;;;;7.85;7.03;;;22.30;69.90;;;;;;5034262;28;20021;-71
2022/08/21 06:22:06;;;;;;;8.90;7.15;;;22.30;69.80;;;;;;5048644;28;20524;-70
2022/08/21 06:24:32;;;;;;;10.35;8.15;;;22.40;69.80;;;;;;5049521;28;20130;-71
2022/08/21 06:27:03;;;;;;;11.05;6.85;;;22.40;69.60;;;;;;5033994;28;20040;-70
2022/08/21 06:29:29;;;;;;;9.27;7.70;;;22.40;69.60;;;;;;5034077;28;20034;-71
2022/08/21 06:31:55;;;;;;;8.07;6.88;;;22.40;69.40;;;;;;5033968;28;20437;-71
2022/08/21 06:34:21;;;;;;;10.23;6.13;;;22.40;69.40;;;;;;5051685;28;20078;-70
2022/08/21 06:36:47;;;;;;;9.75;6.90;;;22.40;69.50;;;;;;5034686;28;20033;-71
2022/08/21 06:39:13;;;;;;;12.50;7.43;;;22.40;70.20;;;;;;5053719;28;20100;-72
2022/08/21 06:41:39;;;;;;;8.75;6.78;;;22.40;70.30;;;;;;5053561;28;20108;-71
2022/08/21 06:44:05;;;;;;;7.97;7.18;;;22.30;70.50;;;;;;5053597;28;20100;-71
2022/08/21 06:46:31;;;;;;;8.13;6.07;;;22.30;71.30;;;;;;5049984;28;20123;-71
2022/08/21 06:48:57;;;;;;;7.22;6.53;;;22.30;70.70;;;;;;5053526;28;20012;-71
2022/08/21 06:51:25;;;;;;;6.90;6.30;;;22.30;70.90;;;;;;5053352;28;20044;-71
2022/08/21 06:53:51;;;;;;;9.63;6.80;;;22.30;71.00;;;;;;5035248;28;20021;-72
2022/08/21 06:56:17;;;;;;;12.57;7.28;;;22.30;71.30;;;;;;5053368;28;20024;-72
2022/08/21 06:58:42;;;;;;;7.28;6.53;;;22.40;71.40;;;;;;5047753;28;20048;-72
2022/08/21 07:01:08;;;;;;;9.35;6.15;;;22.40;71.40;;;;;;5029387;28;20124;-72
2022/08/21 07:03:37;;;;;;;9.80;7.78;;;22.40;70.90;;;;;;5032708;28;20497;-72
2022/08/21 07:06:05;;;;;;;8.57;6.93;;;22.40;70.90;;;;;;5033906;28;20022;-71
2022/08/21 07:08:31;;;;;;;7.40;6.63;;;22.40;71.10;;;;;;5015116;28;20040;-71
2022/08/21 07:11:00;;;;;;;9.55;7.20;;;22.50;71.40;;;;;;5030623;28;20037;-72
2022/08/21 07:13:26;;;;;;;11.23;6.70;;;22.60;71.30;;;;;;5029597;28;20033;-71
2022/08/21 07:15:52;;;;;;;10.07;7.65;;;22.60;71.50;;;;;;5033275;28;20028;-71
2022/08/21 07:18:18;;;;;;;10.95;8.63;;;22.70;71.10;;;;;;5032681;28;20017;-71
2022/08/21 07:20:45;;;;;;;10.50;8.18;;;22.70;70.50;;;;;;5014288;28;20041;-71
2022/08/21 07:23:31;;;;;;;10.30;8.82;;;22.70;70.40;;;;;;5030510;28;20047;-70
2022/08/21 07:26:00;;;;;;;7.82;6.90;;;22.70;71.00;;;;;;5031593;28;20032;-71
2022/08/21 07:28:26;;;;;;;8.07;7.28;;;22.80;70.40;;;;;;5028139;28;20017;-72
2022/08/21 07:30:55;;;;;;;8.80;7.68;;;22.80;70.50;;;;;;5031676;28;20089;-71
2022/08/21 07:33:21;;;;;;;8.63;7.10;;;22.80;70.30;;;;;;5029505;28;20033;-71
2022/08/21 07:35:47;;;;;;;8.13;7.28;;;22.90;70.30;;;;;;5033323;28;20033;-70
2022/08/21 07:38:13;;;;;;;8.70;7.40;;;22.90;70.30;;;;;;5030651;28;20068;-71
2022/08/21 07:40:39;;;;;;;8.75;7.15;;;22.90;70.10;;;;;;5031470;28;20017;-71
2022/08/21 07:43:05;;;;;;;8.10;7.13;;;22.90;70.20;;;;;;5013698;28;20368;-71
2022/08/21 07:45:32;;;;;;;12.00;7.15;;;23.00;70.60;;;;;;5013144;28;20029;-71
2022/08/21 07:47:58;;;;;;;8.57;7.68;;;23.00;70.80;;;;;;5013689;28;20037;-71
2022/08/21 07:50:24;;;;;;;9.35;7.30;;;23.00;70.40;;;;;;5031514;28;20032;-72
2022/08/21 07:52:50;;;;;;;11.45;9.07;;;23.00;70.50;;;;;;5031424;28;20071;-73
2022/08/21 07:55:19;;;;;;;9.40;8.50;;;23.10;70.80;;;;;;5031524;28;20075;-72
2022/08/21 07:57:47;;;;;;;10.10;7.90;;;23.10;69.90;;;;;;5031452;28;20057;-71
2022/08/21 08:00:19;;;;;;;14.55;8.02;;;23.10;70.10;;;;;;5031336;28;20022;-71
2022/08/21 08:02:49;;;;;;;8.90;8.00;;;23.20;70.40;;;;;;5033367;28;20056;-71
2022/08/21 08:05:16;;;;;;;8.90;8.00;;;23.30;70.30;;;;;;5013600;28;20022;-71
2022/08/21 08:07:42;;;;;;;10.30;8.45;;;23.30;70.50;;;;;;5014517;28;20079;-71
2022/08/21 08:10:09;;;;;;;8.63;7.72;;;23.40;70.30;;;;;;5032279;28;20033;-71
2022/08/21 08:12:38;;;;;;;13.13;8.30;;;23.40;70.00;;;;;;5031051;28;20017;-71
2022/08/21 08:15:07;;;;;;;8.38;7.47;;;23.40;69.80;;;;;;5031264;28;20026;-73
2022/08/21 08:17:33;;;;;;;7.65;6.88;;;23.50;70.00;;;;;;5031124;28;20026;-71
2022/08/21 08:20:00;;;;;;;9.05;8.15;;;23.50;69.40;;;;;;5031094;28;20022;-72
2022/08/21 08:22:27;;;;;;;11.75;8.32;;;23.60;69.10;;;;;;5031154;28;20394;-71
2022/08/21 08:24:54;;;;;;;12.00;8.32;;;23.60;68.90;;;;;;5032887;28;20029;-71
2022/08/21 08:27:20;;;;;;;9.27;7.78;;;23.60;68.50;;;;;;5013642;28;20029;-71
2022/08/21 08:29:47;;;;;;;8.70;7.38;;;23.60;68.30;;;;;;5032271;28;20096;-71
2022/08/21 08:32:13;;;;;;;7.72;6.82;;;23.60;68.50;;;;;;5030726;28;20071;-71
2022/08/21 08:34:39;;;;;;;8.95;6.90;;;23.70;68.60;;;;;;5030748;28;20374;-71
2022/08/21 08:37:08;;;;;;;10.55;8.13;;;23.70;68.80;;;;;;5031747;28;20026;-71
2022/08/21 08:39:34;;;;;;;7.93;7.13;;;23.80;68.40;;;;;;5034101;28;20021;-71
2022/08/21 08:42:13;;;;;;;7.82;6.88;;;23.80;68.60;;;;;;5034659;28;20553;-71
2022/08/21 08:44:44;;;;;;;8.82;6.53;;;23.80;68.90;;;;;;5032189;28;20060;-71
2022/08/21 08:47:13;;;;;;;10.27;7.20;;;24.00;69.30;;;;;;5034539;28;20038;-71
2022/08/21 08:50:16;;;;;;;8.20;6.75;;;24.10;68.90;;;;;;5032084;28;20068;-71
2022/08/21 08:52:57;;;;;;;8.75;7.32;;;24.10;68.60;;;;;;4953785;29;20035;-71
2022/08/21 08:55:45;;;;;;;8.07;6.50;;;24.20;67.20;;;;;;4952217;29;20028;-71
2022/08/21 08:58:24;;;;;;;8.23;7.43;;;24.30;67.30;;;;;;4953168;29;20119;-71
2022/08/21 09:00:53;;;;;;;9.95;7.45;;;24.30;66.50;;;;;;4953226;29;20058;-71
2022/08/21 09:03:22;;;;;;;8.60;7.28;;;24.20;66.50;;;;;;4953933;29;20086;-70
2022/08/21 09:05:50;;;;;;;9.50;8.45;;;24.20;66.40;;;;;;4954022;28;20548;-72
2022/08/21 09:08:49;;;;;;;8.60;7.10;;;24.20;68.00;;;;;;4945741;29;20535;-72
2022/08/21 09:11:36;;;;;;;8.43;7.43;;;24.20;68.00;;;;;;4953806;29;20030;-72
2022/08/21 09:14:43;;;;;;;11.40;8.48;;;24.10;67.50;;;;;;4935667;29;20035;-72
2022/08/21 09:17:38;;;;;;;8.88;7.97;;;24.00;67.70;;;;;;4945773;29;20062;-72
2022/08/21 09:20:28;;;;;;;8.20;7.38;;;24.00;67.90;;;;;;4951562;28;20035;-72
2022/08/21 09:23:21;;;;;;;10.00;8.05;;;24.00;68.60;;;;;;4951991;28;20052;-72
2022/08/21 09:26:16;;;;;;;16.77;9.73;;;24.00;68.80;;;;;;4946199;29;20114;-72
2022/08/21 09:28:43;;;;;;;9.40;7.88;;;24.10;68.20;;;;;;5009344;28;20033;-71
2022/08/21 09:31:15;;;;;;;10.85;8.32;;;24.10;68.40;;;;;;5035299;28;20059;-72
2022/08/21 09:33:41;;;;;;;10.05;8.27;;;24.10;68.50;;;;;;5031368;28;20582;-72
2022/08/21 09:36:06;;;;;;;13.65;9.10;;;24.10;68.80;;;;;;5033831;28;20108;-72
2022/08/21 09:38:37;;;;;;;14.63;9.38;;;24.10;68.90;;;;;;5033821;28;20372;-72
2022/08/21 09:41:10;;;;;;;12.77;9.93;;;24.20;68.50;;;;;;5031722;28;20032;-72
2022/08/21 09:43:37;;;;;;;11.55;9.27;;;24.30;68.40;;;;;;5041790;28;20036;-72
2022/08/21 09:46:05;;;;;;;12.55;11.18;;;24.30;68.70;;;;;;5051393;28;20025;-72
2022/08/21 09:48:48;;;;;;;12.55;9.82;;;24.40;68.00;;;;;;5047556;28;20021;-72
2022/08/21 09:51:18;;;;;;;14.63;12.47;;;24.50;68.00;;;;;;5010361;28;20025;-72
2022/08/21 09:53:52;;;;;;;12.00;10.57;;;24.50;68.00;;;;;;5033360;28;20056;-72
2022/08/21 09:59:24;;;;;;;16.35;11.68;;;24.50;66.00;;;;;;5034459;28;20540;-72
2022/08/21 10:01:51;;;;;;;13.50;10.93;;;24.50;65.90;;;;;;5034675;28;20022;-72
2022/08/21 10:04:26;;;;;;;32.88;13.32;;;24.50;66.50;;;;;;5022686;28;20025;-72
2022/08/21 10:06:52;;;;;;;14.60;11.80;;;24.40;66.90;;;;;;5045632;28;20371;-72
2022/08/21 10:09:20;;;;;;;18.90;12.95;;;24.30;70.10;;;;;;5034531;28;20026;-72
2022/08/21 10:12:10;;;;;;;17.27;13.07;;;24.20;69.60;;;;;;5034320;28;20021;-70
2022/08/21 10:15:07;;;;;;;25.88;18.73;;;24.10;70.10;;;;;;5016584;28;20024;-72
2022/08/21 10:17:54;;;;;;;21.90;14.30;;;24.00;70.60;;;;;;5034376;28;20018;-70
2022/08/21 10:20:25;;;;;;;18.40;13.80;;;23.90;71.00;;;;;;5044289;28;20024;-70
2022/08/21 10:23:21;;;;;;;19.63;13.00;;;23.80;70.70;;;;;;5034010;28;20472;-71
2022/08/21 10:26:18;;;;;;;12.02;8.77;;;23.70;70.70;;;;;;5033610;28;20029;-71
2022/08/21 10:29:10;;;;;;;7.07;5.43;;;23.50;69.60;;;;;;5034310;28;20030;-69
2022/08/21 10:32:15;;;;;;;5.30;4.00;;;23.40;70.00;;;;;;5033835;28;20021;-70
2022/08/21 10:35:18;;;;;;;8.15;5.47;;;23.20;70.60;;;;;;5021509;28;20029;-70
2022/08/21 10:37:56;;;;;;;7.45;4.57;;;23.00;70.60;;;;;;5014165;28;20025;-70
2022/08/21 10:40:42;;;;;;;5.80;3.70;;;22.80;70.80;;;;;;5016878;28;20097;-70
2022/08/21 10:43:28;;;;;;;6.65;4.70;;;22.60;71.50;;;;;;5033877;28;20021;-70
2022/08/21 10:46:09;;;;;;;6.00;5.30;;;22.40;72.40;;;;;;5016095;28;20061;-70
2022/08/21 10:49:04;;;;;;;12.95;7.25;;;22.30;73.90;;;;;;5032443;28;20079;-70
2022/08/21 10:51:38;;;;;;;8.45;7.05;;;22.30;75.10;;;;;;5026784;28;20501;-70
2022/08/21 10:54:29;;;;;;;10.32;9.02;;;22.30;76.30;;;;;;5033648;28;20022;-69
2022/08/21 10:57:03;;;;;;;13.27;9.23;;;22.30;76.70;;;;;;5033678;28;20017;-69
2022/08/21 10:59:32;;;;;;;9.88;8.13;;;22.40;76.90;;;;;;5015706;28;20112;-70
2022/08/21 11:02:17;;;;;;;11.70;9.02;;;22.40;77.40;;;;;;5032579;28;20048;-70
2022/08/21 11:04:58;;;;;;;10.50;8.77;;;22.50;77.30;;;;;;5033548;28;20033;-70
2022/08/21 11:07:50;;;;;;;9.43;8.40;;;22.50;77.30;;;;;;5033203;28;20052;-70
2022/08/21 11:10:30;;;;;;;6.97;5.85;;;22.50;75.90;;;;;;5036863;28;20464;-70
2022/08/21 11:13:06;;;;;;;6.30;4.82;;;22.50;75.70;;;;;;5032752;28;20180;-70
2022/08/21 11:15:47;;;;;;;5.85;4.07;;;22.60;75.70;;;;;;5015304;28;20017;-70
2022/08/21 11:18:20;;;;;;;7.10;4.25;;;22.70;74.30;;;;;;5034109;28;20386;-69
2022/08/21 11:21:25;;;;;;;6.32;4.72;;;22.70;73.80;;;;;;5032495;28;20388;-70
2022/08/21 11:24:03;;;;;;;5.93;4.20;;;22.80;74.60;;;;;;5028147;28;20044;-70
2022/08/21 11:26:43;;;;;;;5.15;4.40;;;23.00;74.60;;;;;;5029734;28;20013;-70
2022/08/21 11:29:19;;;;;;;5.28;3.97;;;23.10;73.50;;;;;;5028461;28;20078;-71
2022/08/21 11:32:06;;;;;;;7.32;4.20;;;23.20;73.10;;;;;;5029227;28;20112;-70
2022/08/21 11:34:44;;;;;;;4.00;3.58;;;23.40;72.30;;;;;;5029979;28;20022;-70
2022/08/21 11:37:37;;;;;;;5.63;3.67;;;23.50;72.00;;;;;;5029686;28;20038;-70
2022/08/21 11:40:12;;;;;;;7.97;4.03;;;23.60;72.20;;;;;;5031397;28;20022;-70
2022/08/21 11:43:11;;;;;;;4.20;3.80;;;23.80;72.50;;;;;;5031333;28;20029;-70
2022/08/21 11:45:49;;;;;;;3.65;3.22;;;24.00;73.20;;;;;;5009812;28;20041;-70
2022/08/21 11:48:42;;;;;;;3.80;3.22;;;24.30;72.60;;;;;;5027809;28;20375;-70
2022/08/21 11:51:15;;;;;;;4.03;2.97;;;24.40;71.10;;;;;;5031619;28;20030;-70
2022/08/21 11:54:10;;;;;;;3.95;3.53;;;24.70;70.40;;;;;;5031373;28;20021;-70
2022/08/21 11:56:45;;;;;;;3.58;3.15;;;24.90;69.70;;;;;;5021637;28;20069;-70
2022/08/21 11:59:20;;;;;;;3.10;2.80;;;25.10;69.10;;;;;;5031402;28;20014;-70
2022/08/21 12:01:48;;;;;;;3.33;3.03;;;25.30;68.50;;;;;;5031435;28;20018;-70
2022/08/21 12:04:41;;;;;;;5.18;2.83;;;25.50;68.10;;;;;;5032084;28;20049;-70
2022/08/21 12:07:13;;;;;;;4.18;3.13;;;25.70;67.20;;;;;;5012658;28;20057;-69
2022/08/21 12:09:39;;;;;;;2.92;2.60;;;25.90;65.60;;;;;;5029324;28;20044;-69
2022/08/21 12:12:33;;;;;;;6.05;2.58;;;26.00;66.50;;;;;;5031216;28;20025;-69
2022/08/21 12:15:15;;;;;;;4.40;2.92;;;26.20;64.60;;;;;;5032466;28;20044;-69
2022/08/21 12:18:05;;;;;;;3.80;2.88;;;26.30;63.70;;;;;;5034020;28;20033;-69
2022/08/21 12:20:43;;;;;;;3.85;3.22;;;26.40;62.70;;;;;;5033021;28;20106;-69
2022/08/21 12:23:12;;;;;;;3.20;2.72;;;26.50;62.80;;;;;;5033772;28;20032;-68
2022/08/21 12:26:01;;;;;;;4.18;2.47;;;26.60;62.90;;;;;;5032755;28;20232;-69
2022/08/21 12:28:28;;;;;;;3.38;3.08;;;26.60;62.10;;;;;;5033842;28;20033;-69
2022/08/21 12:31:00;;;;;;;2.90;2.60;;;26.70;62.60;;;;;;5032172;28;20498;-69
2022/08/21 12:33:39;;;;;;;3.95;2.65;;;26.80;61.60;;;;;;5034440;28;20063;-69
2022/08/21 12:36:14;;;;;;;3.03;2.33;;;26.80;60.00;;;;;;5034474;28;20017;-69
2022/08/21 12:38:45;;;;;;;3.80;2.78;;;26.70;60.10;;;;;;5034773;28;20126;-69
2022/08/21 12:41:17;;;;;;;3.75;2.75;;;26.70;58.90;;;;;;5032436;28;20024;-68
2022/08/21 12:44:05;;;;;;;4.50;2.53;;;26.60;58.50;;;;;;5016652;28;20037;-69
2022/08/21 12:46:50;;;;;;;2.20;1.83;;;26.50;57.70;;;;;;5032018;28;20359;-69
2022/08/21 12:49:31;;;;;;;4.80;2.28;;;26.40;57.70;;;;;;5032730;28;20021;-68
2022/08/21 12:52:29;;;;;;;3.45;2.05;;;26.30;59.10;;;;;;5032790;28;20109;-68
2022/08/21 12:54:55;;;;;;;2.00;1.73;;;26.20;59.50;;;;;;5034708;28;20037;-69
2022/08/21 12:57:30;;;;;;;2.47;2.00;;;26.20;59.20;;;;;;5034397;28;20490;-67
2022/08/21 13:00:04;;;;;;;2.50;2.30;;;26.10;59.30;;;;;;5014479;28;20033;-68
2022/08/21 13:02:35;;;;;;;7.40;2.10;;;26.10;58.90;;;;;;5031735;28;20017;-69
2022/08/21 13:05:09;;;;;;;2.63;1.98;;;26.00;58.50;;;;;;5035844;28;20033;-68
2022/08/21 13:07:38;;;;;;;3.60;2.40;;;26.00;58.10;;;;;;5031359;28;20026;-69